Time;durP1;ratioP1;P1;durP2;ratioP2;P2;SDS_P1;SDS_P2;PMS_P1;PMS_P2;Temp;Humidity;BMP_temperature;BMP_pressure;BME280_temperature;BME280_humidity;BME280_pressure;Samples;Min_cycle;Max_cycle;Signal;HPM_P1;HPM_P2
2022/10/10 00:02:27;;;;;;;17.40;14.67;;;26.40;70.50;;;;;;5125437;27;20434;-69
2022/10/10 00:04:58;;;;;;;15.90;14.30;;;26.30;69.40;;;;;;5125516;27;20464;-67
2022/10/10 00:07:29;;;;;;;15.77;14.10;;;26.20;71.40;;;;;;5127084;27;20568;-67
2022/10/10 00:10:00;;;;;;;15.23;13.03;;;26.10;71.20;;;;;;5127912;27;20483;-67
2022/10/10 00:12:32;;;;;;;15.60;13.90;;;26.00;72.50;;;;;;5113929;27;21371;-67
2022/10/10 00:15:03;;;;;;;17.37;13.80;;;26.00;72.70;;;;;;5135526;27;20541;-67
2022/10/10 00:17:34;;;;;;;16.20;13.70;;;25.90;69.90;;;;;;5138222;27;20437;-67
2022/10/10 00:20:05;;;;;;;15.40;13.83;;;25.80;71.80;;;;;;5138574;27;20507;-67
2022/10/10 00:22:36;;;;;;;16.90;14.37;;;25.70;72.40;;;;;;5126195;27;20830;-67
2022/10/10 00:25:08;;;;;;;13.33;12.03;;;25.60;74.20;;;;;;5132661;27;20460;-67
2022/10/10 00:27:41;;;;;;;15.50;13.50;;;25.60;74.00;;;;;;5121648;27;20579;-68
2022/10/10 00:30:12;;;;;;;17.43;13.70;;;25.40;73.10;;;;;;5127957;27;20457;-68
2022/10/10 00:32:43;;;;;;;14.10;12.70;;;25.40;71.60;;;;;;5134013;27;20519;-67
2022/10/10 00:35:14;;;;;;;16.37;13.93;;;25.30;69.90;;;;;;5121653;27;20461;-67
2022/10/10 00:37:45;;;;;;;15.10;13.50;;;25.30;70.00;;;;;;5122438;27;20475;-66
2022/10/10 00:40:16;;;;;;;16.40;13.20;;;25.20;70.50;;;;;;5137007;27;20495;-67
2022/10/10 00:42:48;;;;;;;15.57;13.30;;;25.10;72.30;;;;;;5132111;27;20464;-67
2022/10/10 00:45:29;;;;;;;14.37;12.87;;;25.00;73.50;;;;;;5126994;27;20454;-67
2022/10/10 00:48:04;;;;;;;15.10;13.60;;;24.90;75.40;;;;;;5126094;27;20482;-67
2022/10/10 00:50:39;;;;;;;14.83;13.20;;;24.80;76.20;;;;;;5121226;27;20468;-66
2022/10/10 00:53:11;;;;;;;14.67;12.90;;;24.70;77.30;;;;;;5120433;27;20453;-68
2022/10/10 00:55:43;;;;;;;14.70;13.20;;;24.60;77.90;;;;;;5141551;27;20447;-67
2022/10/10 00:58:16;;;;;;;14.93;13.33;;;24.40;78.80;;;;;;5121772;27;20444;-68
2022/10/10 01:00:47;;;;;;;15.97;14.33;;;24.30;79.60;;;;;;5142046;27;20482;-67
2022/10/10 01:03:18;;;;;;;16.80;13.90;;;24.20;81.20;;;;;;5135571;27;20462;-66
2022/10/10 01:05:50;;;;;;;14.93;13.33;;;24.10;82.90;;;;;;5127299;27;20463;-65
2022/10/10 01:08:22;;;;;;;15.10;13.60;;;23.90;83.90;;;;;;5127274;27;20488;-66
2022/10/10 01:11:02;;;;;;;16.57;14.80;;;23.70;85.20;;;;;;5118576;28;21023;-64
2022/10/10 01:13:44;;;;;;;15.60;13.87;;;23.50;87.10;;;;;;5141230;27;20462;-66
2022/10/10 01:16:24;;;;;;;18.27;13.73;;;23.30;88.20;;;;;;5127374;27;20479;-66
2022/10/10 01:19:02;;;;;;;14.53;12.60;;;23.20;89.70;;;;;;5139467;27;20446;-66
2022/10/10 01:21:39;;;;;;;15.07;13.50;;;23.00;90.50;;;;;;5139165;27;20503;-67
2022/10/10 01:24:38;;;;;;;18.33;15.30;;;22.90;91.00;;;;;;5143173;27;20449;-66
2022/10/10 01:27:32;;;;;;;16.10;14.40;;;22.70;91.50;;;;;;5111261;28;20456;-67
2022/10/10 01:30:09;;;;;;;17.93;15.20;;;22.60;92.30;;;;;;5142641;28;20449;-67
2022/10/10 01:32:46;;;;;;;17.73;15.87;;;22.60;92.60;;;;;;5142884;27;20494;-67
2022/10/10 01:35:33;;;;;;;18.83;15.27;;;22.50;92.80;;;;;;5147619;27;20440;-67
2022/10/10 01:38:23;;;;;;;16.27;14.53;;;22.40;93.40;;;;;;5146970;27;20441;-67
2022/10/10 01:41:02;;;;;;;18.80;14.90;;;22.20;94.80;;;;;;5146392;27;20453;-68
2022/10/10 01:43:33;;;;;;;16.97;15.17;;;22.10;95.60;;;;;;5146777;27;20506;-67
2022/10/10 01:46:14;;;;;;;18.53;15.23;;;22.00;95.30;;;;;;5147001;27;20453;-68
2022/10/10 01:48:46;;;;;;;21.30;16.13;;;21.90;95.70;;;;;;5147100;27;20504;-68
2022/10/10 01:51:29;;;;;;;18.63;15.17;;;21.80;96.20;;;;;;5146516;27;20460;-68
2022/10/10 01:54:07;;;;;;;19.57;16.07;;;21.80;96.80;;;;;;5141530;27;20493;-67
2022/10/10 01:56:47;;;;;;;18.13;14.90;;;21.70;97.20;;;;;;5146211;27;20456;-68
2022/10/10 01:59:31;;;;;;;23.57;15.97;;;21.50;98.00;;;;;;5147351;27;20481;-66
2022/10/10 02:02:11;;;;;;;19.23;16.57;;;21.30;99.20;;;;;;5145816;27;21002;-67
2022/10/10 02:04:47;;;;;;;30.77;22.90;;;21.20;99.80;;;;;;5146773;27;20462;-68
2022/10/10 02:07:25;;;;;;;26.53;23.73;;;21.10;99.90;;;;;;5146901;27;20472;-67
2022/10/10 02:09:58;;;;;;;28.77;25.67;;;20.90;99.90;;;;;;5146606;27;20452;-67
2022/10/10 02:12:32;;;;;;;26.10;23.17;;;20.80;99.90;;;;;;5123337;27;20476;-66
2022/10/10 02:15:09;;;;;;;29.00;23.23;;;20.80;99.90;;;;;;5146010;27;20525;-67
2022/10/10 02:17:43;;;;;;;25.00;20.30;;;20.70;99.90;;;;;;5145633;27;20423;-67
2022/10/10 02:20:17;;;;;;;23.03;20.63;;;20.60;99.90;;;;;;5145853;27;20419;-67
2022/10/10 02:22:50;;;;;;;19.73;17.73;;;20.50;99.90;;;;;;5146078;27;20446;-66
2022/10/10 02:25:27;;;;;;;23.87;18.77;;;20.40;99.90;;;;;;5142899;27;20529;-67
2022/10/10 02:28:08;;;;;;;24.50;19.40;;;20.40;99.90;;;;;;5144037;27;20745;-66
2022/10/10 02:30:40;;;;;;;22.40;18.60;;;20.30;99.90;;;;;;5115785;27;20423;-67
2022/10/10 02:33:18;;;;;;;18.93;16.43;;;20.20;99.90;;;;;;5146069;27;20513;-67
2022/10/10 02:35:51;;;;;;;19.50;16.57;;;20.10;99.90;;;;;;5145857;27;20481;-67
2022/10/10 02:38:22;;;;;;;20.50;16.17;;;20.00;99.90;;;;;;5145513;27;20453;-67
2022/10/10 02:40:55;;;;;;;18.47;16.47;;;19.90;99.90;;;;;;5144043;27;20481;-67
2022/10/10 02:43:27;;;;;;;23.53;18.40;;;19.80;99.90;;;;;;5133194;27;20557;-67
2022/10/10 02:45:58;;;;;;;21.10;17.63;;;19.80;99.90;;;;;;5139766;27;20423;-66
2022/10/10 02:48:30;;;;;;;21.00;18.00;;;19.80;99.90;;;;;;5145523;27;20509;-67
2022/10/10 02:51:02;;;;;;;19.37;17.27;;;19.70;99.90;;;;;;5145145;27;20412;-66
2022/10/10 02:53:34;;;;;;;19.60;16.57;;;19.60;99.90;;;;;;5145070;27;20971;-66
2022/10/10 02:56:04;;;;;;;20.03;17.30;;;19.60;99.90;;;;;;5145553;27;20456;-66
2022/10/10 02:58:35;;;;;;;22.07;18.13;;;19.50;99.90;;;;;;5144627;27;20422;-67
2022/10/10 03:01:06;;;;;;;19.70;17.70;;;19.40;99.90;;;;;;5144578;27;20427;-67
2022/10/10 03:03:38;;;;;;;24.30;17.70;;;19.40;99.90;;;;;;5127761;27;20579;-66
2022/10/10 03:06:09;;;;;;;23.03;18.77;;;19.30;99.90;;;;;;5133755;27;20423;-67
2022/10/10 03:08:40;;;;;;;24.50;19.40;;;19.20;99.90;;;;;;5145267;27;20485;-68
2022/10/10 03:11:11;;;;;;;22.33;18.73;;;19.10;99.90;;;;;;5144823;27;20985;-67
2022/10/10 03:13:42;;;;;;;21.83;18.20;;;19.10;99.90;;;;;;5144921;27;20996;-68
2022/10/10 03:16:13;;;;;;;23.33;20.27;;;19.00;99.90;;;;;;5144925;27;20844;-66
2022/10/10 03:18:45;;;;;;;25.83;20.97;;;19.00;99.90;;;;;;5144678;27;20484;-65
2022/10/10 03:21:16;;;;;;;24.53;20.97;;;18.90;99.90;;;;;;5144378;27;20560;-65
2022/10/10 03:23:46;;;;;;;24.37;20.17;;;18.90;99.90;;;;;;5144989;27;20541;-65
2022/10/10 03:26:17;;;;;;;27.00;20.47;;;18.90;99.90;;;;;;5144859;27;20494;-65
2022/10/10 03:28:48;;;;;;;24.80;19.50;;;18.80;99.90;;;;;;5143987;27;20525;-65
2022/10/10 03:31:19;;;;;;;25.23;19.33;;;18.80;99.90;;;;;;5143833;27;20416;-65
2022/10/10 03:33:51;;;;;;;22.87;19.60;;;18.70;99.90;;;;;;5134386;27;21028;-65
2022/10/10 03:36:22;;;;;;;24.17;18.67;;;18.60;99.90;;;;;;5140824;27;20457;-65
2022/10/10 03:38:53;;;;;;;25.03;19.97;;;18.60;99.90;;;;;;5144362;27;20407;-67
2022/10/10 03:41:23;;;;;;;26.63;20.60;;;18.40;99.90;;;;;;5143968;27;20415;-66
2022/10/10 03:43:54;;;;;;;25.20;20.00;;;18.40;99.90;;;;;;5143982;27;20452;-65
2022/10/10 03:46:25;;;;;;;28.57;20.30;;;18.40;99.90;;;;;;5144208;27;20449;-65
2022/10/10 03:48:57;;;;;;;27.90;20.77;;;18.40;99.90;;;;;;5144088;27;20472;-65
2022/10/10 03:51:28;;;;;;;26.20;19.70;;;18.30;99.90;;;;;;5143669;27;20497;-66
2022/10/10 03:53:59;;;;;;;23.60;18.10;;;18.20;99.90;;;;;;5143746;27;20424;-66
2022/10/10 03:56:30;;;;;;;25.20;19.13;;;18.20;99.90;;;;;;5142847;27;20453;-65
2022/10/10 03:59:02;;;;;;;27.37;20.30;;;18.10;99.90;;;;;;5143377;27;20766;-65
2022/10/10 04:01:34;;;;;;;24.80;20.73;;;18.10;99.90;;;;;;5143333;27;20423;-66
2022/10/10 04:04:07;;;;;;;24.60;19.80;;;18.00;99.90;;;;;;5144299;27;20466;-66
2022/10/10 04:06:38;;;;;;;24.10;18.40;;;18.00;99.90;;;;;;5143955;27;20727;-65
2022/10/10 04:09:09;;;;;;;22.77;18.80;;;18.00;99.90;;;;;;5144175;27;20517;-65
2022/10/10 04:11:39;;;;;;;26.27;19.93;;;18.00;99.90;;;;;;5142505;27;20522;-66
2022/10/10 04:14:10;;;;;;;21.57;18.37;;;18.00;99.90;;;;;;5143710;27;20879;-66
2022/10/10 04:16:41;;;;;;;23.67;19.00;;;18.00;99.90;;;;;;5143691;27;20419;-66
2022/10/10 04:19:13;;;;;;;26.40;19.70;;;17.90;99.90;;;;;;5143522;27;20423;-66
2022/10/10 04:21:44;;;;;;;26.07;20.27;;;17.90;99.90;;;;;;5143037;27;20440;-67
2022/10/10 04:24:15;;;;;;;21.50;18.33;;;17.90;99.90;;;;;;5144204;27;20498;-66
2022/10/10 04:26:46;;;;;;;27.97;19.90;;;17.90;99.90;;;;;;5142949;27;20543;-66
2022/10/10 04:29:17;;;;;;;24.33;19.53;;;17.90;99.90;;;;;;5142762;27;20435;-66
2022/10/10 04:31:47;;;;;;;26.83;19.50;;;17.90;99.90;;;;;;5142501;27;20510;-66
2022/10/10 04:34:20;;;;;;;26.47;20.13;;;17.80;99.90;;;;;;5143610;27;20444;-66
2022/10/10 04:36:51;;;;;;;28.33;20.43;;;17.70;99.90;;;;;;5143641;27;20412;-66
2022/10/10 04:39:22;;;;;;;24.53;20.20;;;17.60;99.90;;;;;;5143135;27;20769;-65
2022/10/10 04:41:53;;;;;;;25.73;20.40;;;17.60;99.90;;;;;;5142481;27;20476;-66
2022/10/10 04:44:24;;;;;;;28.00;20.33;;;17.50;99.90;;;;;;5143160;27;20492;-65
2022/10/10 04:46:55;;;;;;;28.60;20.17;;;17.50;99.90;;;;;;5139360;27;20468;-66
2022/10/10 04:49:27;;;;;;;25.70;19.60;;;17.50;99.90;;;;;;5124722;27;20454;-66
2022/10/10 04:51:58;;;;;;;26.60;20.93;;;17.50;99.90;;;;;;5117557;27;20475;-66
2022/10/10 04:54:29;;;;;;;23.57;18.37;;;17.50;99.90;;;;;;5137560;27;20420;-65
2022/10/10 04:57:00;;;;;;;25.10;19.93;;;17.40;99.90;;;;;;5135525;27;20511;-66
2022/10/10 04:59:31;;;;;;;27.07;20.53;;;17.30;99.90;;;;;;5130946;27;20556;-65
2022/10/10 05:02:02;;;;;;;24.60;18.73;;;17.30;99.90;;;;;;5136853;27;20473;-65
2022/10/10 05:04:34;;;;;;;26.33;20.23;;;17.30;99.90;;;;;;5112832;27;20485;-65
2022/10/10 05:07:05;;;;;;;25.23;19.73;;;17.10;99.90;;;;;;5117762;27;20477;-65
2022/10/10 05:09:36;;;;;;;27.50;20.90;;;17.10;99.90;;;;;;5138003;27;20461;-65
2022/10/10 05:12:07;;;;;;;29.37;19.90;;;17.00;99.90;;;;;;5135635;27;20486;-65
2022/10/10 05:14:38;;;;;;;28.50;20.50;;;16.90;99.90;;;;;;5140539;27;20449;-65
2022/10/10 05:17:12;;;;;;;24.00;19.20;;;16.90;99.90;;;;;;5134759;27;20453;-65
2022/10/10 05:19:44;;;;;;;27.90;20.73;;;16.90;99.90;;;;;;5130688;28;20447;-66
2022/10/10 05:22:15;;;;;;;26.73;19.97;;;16.90;99.90;;;;;;5132495;28;20493;-65
2022/10/10 05:24:46;;;;;;;28.50;21.13;;;17.00;99.90;;;;;;5137093;27;20471;-65
2022/10/10 05:27:17;;;;;;;24.00;19.70;;;17.00;99.90;;;;;;5134972;28;20424;-65
2022/10/10 05:29:48;;;;;;;25.43;19.40;;;17.00;99.90;;;;;;5128333;28;20464;-66
2022/10/10 05:32:18;;;;;;;26.63;21.43;;;17.00;99.90;;;;;;5125651;28;20446;-66
2022/10/10 05:34:51;;;;;;;28.37;22.00;;;17.00;99.90;;;;;;5134491;28;20613;-64
2022/10/10 05:37:22;;;;;;;29.00;21.30;;;16.90;99.90;;;;;;5131325;27;20456;-66
2022/10/10 05:39:52;;;;;;;24.10;18.53;;;16.90;99.90;;;;;;5126299;28;20454;-66
2022/10/10 05:42:23;;;;;;;30.63;20.90;;;16.90;99.90;;;;;;5125925;28;20626;-66
2022/10/10 05:44:54;;;;;;;29.33;21.87;;;16.90;99.90;;;;;;5132573;28;20464;-66
2022/10/10 05:47:25;;;;;;;33.30;22.97;;;16.90;99.90;;;;;;5135050;27;20456;-66
2022/10/10 05:50:09;;;;;;;29.30;21.70;;;16.90;99.90;;;;;;5142633;27;20460;-67
2022/10/10 05:52:40;;;;;;;27.90;21.17;;;16.90;99.90;;;;;;5135320;27;20437;-66
2022/10/10 05:55:11;;;;;;;32.43;22.63;;;16.80;99.90;;;;;;5138513;28;20478;-67
2022/10/10 05:57:41;;;;;;;31.47;22.80;;;16.80;99.90;;;;;;5137278;27;20457;-67
2022/10/10 06:00:13;;;;;;;31.00;21.80;;;16.80;99.90;;;;;;5142726;27;20520;-66
2022/10/10 06:02:44;;;;;;;31.70;22.37;;;16.80;99.90;;;;;;5133232;27;20485;-67
2022/10/10 06:05:17;;;;;;;28.10;21.10;;;16.70;99.90;;;;;;5128471;28;20491;-67
2022/10/10 06:07:48;;;;;;;29.50;22.40;;;16.70;99.90;;;;;;5140137;28;20606;-66
2022/10/10 06:10:38;;;;;;;31.30;23.13;;;16.70;99.90;;;;;;5114602;28;20465;-66
2022/10/10 06:13:10;;;;;;;29.80;22.50;;;16.70;99.90;;;;;;5125908;28;20465;-66
2022/10/10 06:15:41;;;;;;;28.63;21.90;;;16.70;99.90;;;;;;5125634;28;20557;-67
2022/10/10 06:18:13;;;;;;;28.40;22.13;;;16.60;99.90;;;;;;5128508;28;20455;-66
2022/10/10 06:20:46;;;;;;;30.53;21.47;;;16.60;99.90;;;;;;5124509;27;20446;-66
2022/10/10 06:23:17;;;;;;;32.37;22.70;;;16.60;99.90;;;;;;5109233;27;20462;-67
2022/10/10 06:25:47;;;;;;;31.83;23.90;;;16.50;99.90;;;;;;5128557;27;20454;-66
2022/10/10 06:28:18;;;;;;;30.77;23.13;;;16.50;99.90;;;;;;5117877;27;20462;-66
2022/10/10 06:30:49;;;;;;;34.00;22.93;;;16.40;99.90;;;;;;5132318;27;20540;-66
2022/10/10 06:33:20;;;;;;;30.90;23.20;;;16.40;99.90;;;;;;5136469;27;20609;-66
2022/10/10 06:35:53;;;;;;;32.47;23.07;;;16.40;99.90;;;;;;5128482;27;20514;-66
2022/10/10 06:38:24;;;;;;;28.50;22.70;;;16.40;99.90;;;;;;5127056;27;20454;-66
2022/10/10 06:40:54;;;;;;;30.47;21.50;;;16.30;99.90;;;;;;5120886;27;20488;-66
2022/10/10 06:43:29;;;;;;;29.30;22.33;;;16.30;99.90;;;;;;5130734;27;20540;-66
2022/10/10 06:46:00;;;;;;;32.63;22.67;;;16.10;99.90;;;;;;5118584;27;20584;-66
2022/10/10 06:48:33;;;;;;;29.83;23.10;;;16.10;99.90;;;;;;5136802;27;20947;-66
2022/10/10 06:51:08;;;;;;;32.07;23.57;;;16.20;99.90;;;;;;5134066;27;20471;-66
2022/10/10 06:53:38;;;;;;;29.73;23.10;;;16.10;99.90;;;;;;5125486;27;20485;-67
2022/10/10 06:56:14;;;;;;;30.70;21.80;;;16.10;99.90;;;;;;5134575;27;20469;-66
2022/10/10 06:58:45;;;;;;;27.80;21.50;;;16.10;99.90;;;;;;5134219;27;20533;-66
2022/10/10 07:01:18;;;;;;;31.03;22.43;;;15.90;99.90;;;;;;5130423;27;20538;-65
2022/10/10 07:03:49;;;;;;;31.47;23.03;;;15.90;99.90;;;;;;5117242;27;20474;-66
2022/10/10 07:06:21;;;;;;;30.20;20.97;;;15.90;99.90;;;;;;5126489;27;20543;-66
2022/10/10 07:08:52;;;;;;;31.07;20.43;;;15.80;99.90;;;;;;5145867;27;20441;-66
2022/10/10 07:11:23;;;;;;;28.80;22.27;;;15.70;99.90;;;;;;5144771;27;20528;-66
2022/10/10 07:13:54;;;;;;;28.13;22.67;;;15.70;99.90;;;;;;5124243;27;20577;-68
2022/10/10 07:16:25;;;;;;;29.20;20.20;;;15.70;99.90;;;;;;5123902;27;20531;-65
2022/10/10 07:18:55;;;;;;;31.97;23.40;;;15.70;99.90;;;;;;5118320;27;20527;-65
2022/10/10 07:21:28;;;;;;;30.33;22.13;;;15.60;99.90;;;;;;5128907;27;20460;-66
2022/10/10 07:23:59;;;;;;;28.70;22.43;;;15.60;99.90;;;;;;5134502;27;20469;-65
2022/10/10 07:26:35;;;;;;;32.43;20.80;;;15.50;99.90;;;;;;5132894;27;20457;-65
2022/10/10 07:29:07;;;;;;;33.60;22.83;;;15.40;99.90;;;;;;5125743;27;20487;-66
2022/10/10 07:31:37;;;;;;;30.00;20.97;;;15.50;99.90;;;;;;5140410;27;20456;-65
2022/10/10 07:34:08;;;;;;;29.37;22.13;;;15.40;99.90;;;;;;5127299;27;20949;-66
2022/10/10 07:36:41;;;;;;;35.37;22.70;;;15.40;99.90;;;;;;5132740;27;20817;-66
2022/10/10 07:39:11;;;;;;;33.17;23.63;;;15.30;99.90;;;;;;5130324;27;20838;-66
2022/10/10 07:41:45;;;;;;;27.83;22.00;;;15.30;99.90;;;;;;5133662;27;20527;-65
2022/10/10 07:44:16;;;;;;;31.87;23.67;;;15.20;99.90;;;;;;5141049;27;20469;-66
2022/10/10 07:46:47;;;;;;;28.03;21.00;;;15.20;99.90;;;;;;5130842;27;20465;-66
2022/10/10 07:49:18;;;;;;;33.03;22.87;;;15.10;99.90;;;;;;5129837;27;20458;-66
2022/10/10 07:51:50;;;;;;;31.30;23.97;;;15.20;99.90;;;;;;5138445;27;20458;-66
2022/10/10 07:54:24;;;;;;;30.90;23.57;;;15.20;99.90;;;;;;5133256;27;20453;-65
2022/10/10 07:56:55;;;;;;;31.40;21.80;;;15.20;99.90;;;;;;5132503;27;20511;-66
2022/10/10 07:59:26;;;;;;;29.03;21.10;;;15.20;99.90;;;;;;5133111;27;20517;-66
2022/10/10 08:01:57;;;;;;;30.97;21.13;;;15.10;99.90;;;;;;5126999;27;20461;-66
2022/10/10 08:04:28;;;;;;;29.40;21.13;;;15.00;99.90;;;;;;5122814;27;20486;-66
2022/10/10 08:07:00;;;;;;;27.87;21.93;;;15.00;99.90;;;;;;5134338;27;20485;-66
2022/10/10 08:09:31;;;;;;;34.93;23.60;;;14.90;99.90;;;;;;5124102;27;20774;-65
2022/10/10 08:12:02;;;;;;;29.67;21.63;;;14.90;99.90;;;;;;5119483;27;20470;-66
2022/10/10 08:14:33;;;;;;;29.40;21.37;;;14.90;99.90;;;;;;5123995;27;20503;-65
2022/10/10 08:17:03;;;;;;;28.90;21.77;;;15.00;99.90;;;;;;5110356;27;20512;-66
2022/10/10 08:19:34;;;;;;;30.03;21.40;;;14.90;99.90;;;;;;5108506;27;20458;-66
2022/10/10 08:22:07;;;;;;;26.37;21.63;;;14.90;99.90;;;;;;5118672;27;20449;-65
2022/10/10 08:24:38;;;;;;;29.87;21.03;;;14.80;99.90;;;;;;5127155;27;20450;-66
2022/10/10 08:27:08;;;;;;;31.20;22.77;;;14.70;99.90;;;;;;5109524;27;20489;-65
2022/10/10 08:29:39;;;;;;;32.07;21.67;;;14.60;99.90;;;;;;5137052;27;20506;-65
2022/10/10 08:32:10;;;;;;;29.40;20.73;;;14.60;99.90;;;;;;5123457;27;20490;-66
2022/10/10 08:34:41;;;;;;;30.70;21.57;;;14.70;99.90;;;;;;5124125;27;21630;-66
2022/10/10 08:37:13;;;;;;;27.27;21.00;;;14.70;99.90;;;;;;5126552;27;20458;-65
2022/10/10 08:39:44;;;;;;;28.77;21.43;;;14.70;99.90;;;;;;5132746;27;20461;-66
2022/10/10 08:42:20;;;;;;;30.80;22.20;;;14.70;99.90;;;;;;5124840;27;20492;-65
2022/10/10 08:44:56;;;;;;;29.10;21.77;;;14.60;99.90;;;;;;5126031;27;20572;-65
2022/10/10 08:47:34;;;;;;;30.27;21.50;;;14.60;99.90;;;;;;5113705;27;20618;-66
2022/10/10 08:50:14;;;;;;;32.13;23.47;;;14.60;99.90;;;;;;5140402;27;20419;-66
2022/10/10 08:52:51;;;;;;;33.80;22.20;;;14.50;99.90;;;;;;5135987;27;20478;-66
2022/10/10 08:55:29;;;;;;;30.23;21.10;;;14.60;99.90;;;;;;5124214;27;20464;-66
2022/10/10 08:58:06;;;;;;;32.57;21.07;;;14.50;99.90;;;;;;5120885;27;20483;-66
2022/10/10 09:00:40;;;;;;;32.17;22.23;;;14.50;99.90;;;;;;5131844;27;20485;-66
2022/10/10 09:03:20;;;;;;;32.83;23.70;;;14.50;99.90;;;;;;5131593;27;20487;-65
2022/10/10 09:06:03;;;;;;;33.50;22.67;;;14.50;99.90;;;;;;5135407;27;20556;-65
2022/10/10 09:08:46;;;;;;;27.80;22.07;;;14.50;99.90;;;;;;5140653;27;20617;-66
2022/10/10 09:11:29;;;;;;;31.10;22.67;;;14.30;99.90;;;;;;5132406;27;20448;-65
2022/10/10 09:14:08;;;;;;;29.60;21.87;;;14.20;99.90;;;;;;5133978;27;20469;-67
2022/10/10 09:16:45;;;;;;;29.70;20.80;;;14.20;99.90;;;;;;5134700;27;20460;-66
2022/10/10 09:19:28;;;;;;;29.47;22.00;;;14.20;99.90;;;;;;5115866;28;20509;-66
2022/10/10 09:22:02;;;;;;;34.20;21.60;;;14.10;99.90;;;;;;5128560;28;20505;-65
2022/10/10 09:24:38;;;;;;;31.43;22.10;;;14.10;99.90;;;;;;5116094;27;20522;-66
2022/10/10 09:27:16;;;;;;;31.73;21.57;;;14.00;99.90;;;;;;5124693;27;20499;-65
2022/10/10 09:29:53;;;;;;;33.33;22.40;;;14.00;99.90;;;;;;5133015;28;20459;-65
2022/10/10 09:32:29;;;;;;;35.57;25.57;;;14.00;99.90;;;;;;5129310;27;20457;-66
2022/10/10 09:35:06;;;;;;;31.63;22.20;;;14.00;99.90;;;;;;5110359;28;20478;-65
2022/10/10 09:37:40;;;;;;;31.00;23.37;;;13.80;99.90;;;;;;5130770;27;20465;-65
2022/10/10 09:40:24;;;;;;;35.53;23.90;;;13.70;99.90;;;;;;5133491;28;20457;-65
2022/10/10 09:42:56;;;;;;;33.57;23.00;;;13.70;99.90;;;;;;5122722;28;20465;-65
2022/10/10 09:45:31;;;;;;;34.73;23.60;;;13.70;99.90;;;;;;5128691;27;20559;-66
2022/10/10 09:48:01;;;;;;;31.67;23.77;;;13.80;99.90;;;;;;5122022;28;20465;-65
2022/10/10 09:50:32;;;;;;;32.00;23.70;;;13.80;99.90;;;;;;5121668;27;20445;-66
2022/10/10 09:53:03;;;;;;;30.53;21.90;;;13.80;99.90;;;;;;5129774;27;20462;-66
2022/10/10 09:55:40;;;;;;;33.47;22.07;;;13.80;99.90;;;;;;5116354;27;20470;-65
2022/10/10 09:58:17;;;;;;;32.00;21.80;;;13.80;99.90;;;;;;5123686;27;20469;-65
2022/10/10 10:00:48;;;;;;;30.67;22.53;;;13.70;99.90;;;;;;5132346;27;20468;-65
2022/10/10 10:03:20;;;;;;;31.27;22.73;;;13.60;99.90;;;;;;5133379;27;20464;-65
2022/10/10 10:05:58;;;;;;;32.20;21.67;;;13.70;99.90;;;;;;5127265;27;20542;-66
2022/10/10 10:08:31;;;;;;;31.47;22.07;;;13.60;99.90;;;;;;5129521;27;20461;-65
2022/10/10 10:11:04;;;;;;;38.90;24.00;;;13.60;99.90;;;;;;5137565;27;21031;-66
2022/10/10 10:13:36;;;;;;;30.30;22.63;;;13.60;99.90;;;;;;5136437;27;20501;-66
2022/10/10 10:16:09;;;;;;;34.37;23.20;;;13.60;99.90;;;;;;5118745;27;20466;-66
2022/10/10 10:18:42;;;;;;;30.53;22.20;;;13.60;99.90;;;;;;5132907;27;20457;-66
2022/10/10 10:21:20;;;;;;;30.40;22.07;;;13.50;99.90;;;;;;5133666;27;20452;-65
2022/10/10 10:23:57;;;;;;;34.17;23.03;;;13.50;99.90;;;;;;5138993;27;20486;-65
2022/10/10 10:26:43;;;;;;;28.67;21.50;;;13.50;99.90;;;;;;5118380;27;20498;-65
2022/10/10 10:29:30;;;;;;;33.07;23.57;;;13.50;99.90;;;;;;5128514;27;20456;-66
2022/10/10 10:32:11;;;;;;;30.23;22.57;;;13.50;99.90;;;;;;5128503;27;20460;-65
2022/10/10 10:35:08;;;;;;;34.67;22.57;;;13.40;99.90;;;;;;5145895;27;20524;-65
2022/10/10 10:37:51;;;;;;;35.40;24.37;;;13.40;99.90;;;;;;5130905;27;20526;-65
2022/10/10 10:40:33;;;;;;;39.20;25.50;;;13.50;99.90;;;;;;5134465;27;20560;-64
2022/10/10 10:43:33;;;;;;;30.93;22.70;;;13.40;99.90;;;;;;5134387;27;20925;-65
2022/10/10 10:46:15;;;;;;;31.47;21.77;;;13.40;99.90;;;;;;5117432;27;20531;-64
2022/10/10 10:48:47;;;;;;;33.53;23.13;;;13.30;99.90;;;;;;5122234;27;20487;-65
2022/10/10 10:51:43;;;;;;;31.03;22.10;;;13.20;99.90;;;;;;5107282;27;20459;-65
2022/10/10 10:54:36;;;;;;;34.63;22.97;;;13.20;99.90;;;;;;5120220;27;20507;-65
2022/10/10 10:57:28;;;;;;;30.07;22.10;;;13.10;99.90;;;;;;5124528;27;20456;-65
2022/10/10 11:00:18;;;;;;;31.67;24.03;;;13.10;99.90;;;;;;5142693;27;20873;-65
2022/10/10 11:03:22;;;;;;;30.30;21.40;;;13.10;99.90;;;;;;5113598;27;20453;-66
2022/10/10 11:06:31;;;;;;;32.20;21.10;;;13.10;99.90;;;;;;5114572;27;20500;-66
2022/10/10 11:09:12;;;;;;;29.83;21.53;;;13.10;99.90;;;;;;5139127;27;20465;-66
2022/10/10 11:12:11;;;;;;;32.13;22.47;;;13.10;99.90;;;;;;5123738;27;20481;-66
2022/10/10 11:14:55;;;;;;;31.63;21.87;;;13.10;99.90;;;;;;5138546;27;20956;-66
2022/10/10 11:17:34;;;;;;;35.90;22.37;;;13.00;99.90;;;;;;5133227;27;20458;-65
2022/10/10 11:20:17;;;;;;;31.90;21.17;;;13.00;99.90;;;;;;5134282;27;20464;-66
2022/10/10 11:22:51;;;;;;;32.43;24.30;;;13.00;99.90;;;;;;5133809;27;20465;-66
2022/10/10 11:25:26;;;;;;;37.70;22.60;;;13.00;99.90;;;;;;5125720;27;20475;-66
2022/10/10 11:28:04;;;;;;;32.83;22.30;;;12.90;99.90;;;;;;5120775;27;20493;-66
2022/10/10 11:30:40;;;;;;;33.67;21.17;;;12.90;99.90;;;;;;5111740;27;20588;-65
2022/10/10 11:33:19;;;;;;;35.97;23.73;;;13.00;99.90;;;;;;5135820;27;20505;-66
2022/10/10 11:35:54;;;;;;;30.73;24.07;;;13.00;99.90;;;;;;5122650;27;20458;-65
2022/10/10 11:38:29;;;;;;;37.50;24.10;;;13.00;99.90;;;;;;5121478;27;20460;-66
2022/10/10 11:41:03;;;;;;;34.63;22.90;;;12.90;99.90;;;;;;5120600;27;20453;-66
2022/10/10 11:43:46;;;;;;;33.80;24.63;;;12.90;99.90;;;;;;5129139;27;20503;-66
2022/10/10 11:46:30;;;;;;;35.53;22.90;;;12.90;99.90;;;;;;5129778;27;20499;-65
2022/10/10 11:49:09;;;;;;;37.63;23.07;;;12.90;99.90;;;;;;5141468;27;20459;-65
2022/10/10 11:51:51;;;;;;;33.27;21.87;;;12.90;99.90;;;;;;5112534;27;20501;-66
2022/10/10 11:54:37;;;;;;;30.47;20.97;;;12.80;99.90;;;;;;5116695;27;20912;-66
2022/10/10 11:57:14;;;;;;;26.97;21.10;;;12.90;99.90;;;;;;5143645;27;20449;-66
2022/10/10 11:59:50;;;;;;;35.33;22.60;;;12.80;99.90;;;;;;5143682;27;20452;-65
2022/10/10 12:02:26;;;;;;;31.50;21.57;;;12.80;99.90;;;;;;5143623;27;20437;-65
2022/10/10 12:04:59;;;;;;;31.20;22.47;;;12.80;99.90;;;;;;5143845;27;20456;-66
2022/10/10 12:07:33;;;;;;;31.77;21.87;;;12.80;99.90;;;;;;5141798;27;20511;-66
2022/10/10 12:10:10;;;;;;;30.90;21.10;;;12.70;99.90;;;;;;5129099;27;20933;-65
2022/10/10 12:12:45;;;;;;;30.60;22.13;;;12.70;99.90;;;;;;5132890;27;20453;-66
2022/10/10 12:15:27;;;;;;;29.00;22.20;;;12.70;99.90;;;;;;5132136;27;20502;-66
2022/10/10 12:17:59;;;;;;;36.73;24.50;;;12.60;99.90;;;;;;5130575;27;20471;-65
2022/10/10 12:20:36;;;;;;;33.90;23.00;;;12.70;99.90;;;;;;5126737;27;20487;-65
2022/10/10 12:23:23;;;;;;;30.27;22.20;;;12.70;99.90;;;;;;5124654;27;20452;-65
2022/10/10 12:25:54;;;;;;;32.93;22.40;;;12.70;99.90;;;;;;5124006;27;20944;-66
2022/10/10 12:28:29;;;;;;;30.70;21.77;;;12.50;99.90;;;;;;5127737;27;20846;-64
2022/10/10 12:31:29;;;;;;;29.93;20.77;;;12.50;99.90;;;;;;5139611;27;20517;-64
2022/10/10 12:34:16;;;;;;;29.50;20.40;;;12.50;99.90;;;;;;5110814;27;20463;-65
2022/10/10 12:37:10;;;;;;;30.73;21.20;;;12.60;99.90;;;;;;5111111;27;20514;-64
2022/10/10 12:40:15;;;;;;;26.87;19.50;;;12.60;99.90;;;;;;5133009;27;20897;-66
2022/10/10 12:43:02;;;;;;;33.90;21.97;;;12.50;99.90;;;;;;5135409;27;20472;-65
2022/10/10 12:45:58;;;;;;;27.27;19.53;;;12.50;99.90;;;;;;5137398;27;20491;-65
2022/10/10 12:48:29;;;;;;;29.23;20.30;;;12.40;99.90;;;;;;5118970;27;20542;-65
2022/10/10 12:51:02;;;;;;;27.90;19.70;;;12.40;99.90;;;;;;5131283;27;20449;-64
2022/10/10 12:53:36;;;;;;;29.17;21.77;;;12.40;99.90;;;;;;5133626;27;20480;-66
2022/10/10 12:56:07;;;;;;;32.53;20.90;;;12.40;99.90;;;;;;5132505;27;20437;-64
2022/10/10 12:58:41;;;;;;;31.03;21.00;;;12.40;99.90;;;;;;5142614;27;20457;-65
2022/10/10 13:01:26;;;;;;;22.03;16.60;;;12.30;99.90;;;;;;5143041;27;20959;-65
2022/10/10 13:03:58;;;;;;;29.07;20.80;;;12.20;99.90;;;;;;5135030;27;20456;-65
2022/10/10 13:06:35;;;;;;;27.17;19.87;;;12.10;99.90;;;;;;5127230;27;20525;-65
2022/10/10 13:09:12;;;;;;;26.10;18.70;;;12.10;99.90;;;;;;5130867;27;20496;-65